Time;durP1;ratioP1;P1;durP2;ratioP2;P2;SDS_P1;SDS_P2;PMS_P1;PMS_P2;Temp;Humidity;BMP_temperature;BMP_pressure;BME280_temperature;BME280_humidity;BME280_pressure;Samples;Min_cycle;Max_cycle;Signal;HPM_P1;HPM_P2
2021/10/02 00:38:12;;;;;;;12.18;7.20;;;13.50;99.90;;;;;;5034619;28;20052;-73
2021/10/02 00:46:07;;;;;;;12.45;8.02;;;13.50;99.90;;;;;;5034863;28;20113;-73
2021/10/02 00:48:36;;;;;;;11.02;9.77;;;13.50;99.90;;;;;;5033076;28;20029;-74
2021/10/02 00:51:02;;;;;;;12.25;10.07;;;13.50;99.90;;;;;;5033407;28;20432;-74
2021/10/02 00:53:28;;;;;;;15.15;10.85;;;13.60;99.90;;;;;;5034402;28;20021;-73
2021/10/02 00:55:53;;;;;;;18.63;14.48;;;13.60;99.90;;;;;;5032967;28;20558;-73
2021/10/02 00:58:19;;;;;;;24.90;18.67;;;13.50;99.90;;;;;;5034051;28;20017;-73
2021/10/02 01:00:48;;;;;;;22.98;14.55;;;13.50;99.90;;;;;;5034136;28;20029;-73
2021/10/02 01:03:24;;;;;;;16.92;14.80;;;13.50;99.90;;;;;;5033147;28;20028;-74
2021/10/02 01:06:19;;;;;;;18.80;12.70;;;13.50;99.90;;;;;;5034216;28;20024;-73
2021/10/02 01:08:54;;;;;;;10.65;8.40;;;13.50;99.90;;;;;;5033611;28;20457;-72
2021/10/02 01:11:51;;;;;;;13.05;9.77;;;13.50;99.90;;;;;;5034164;28;20041;-73
2021/10/02 01:14:46;;;;;;;13.07;10.52;;;13.50;99.90;;;;;;5034978;28;20072;-73
2021/10/02 01:17:23;;;;;;;10.57;7.85;;;13.50;99.90;;;;;;5033557;28;20034;-73
2021/10/02 01:20:03;;;;;;;12.27;9.50;;;13.50;99.90;;;;;;5032792;28;20578;-73
2021/10/02 01:22:55;;;;;;;11.93;9.45;;;13.50;99.90;;;;;;5034382;28;20481;-74
2021/10/02 01:25:32;;;;;;;10.73;8.00;;;13.50;99.90;;;;;;5033879;28;20032;-74
2021/10/02 01:28:18;;;;;;;12.88;8.10;;;13.50;99.90;;;;;;5033966;28;20473;-74
2021/10/02 01:31:09;;;;;;;9.65;8.02;;;13.50;99.90;;;;;;5031500;28;20029;-73
2021/10/02 01:33:50;;;;;;;11.82;8.13;;;13.50;99.90;;;;;;5033566;28;20389;-74
2021/10/02 01:47:41;;;;;;;10.55;8.60;;;13.50;99.90;;;;;;5033800;28;20060;-74
2021/10/02 01:50:08;;;;;;;12.45;9.00;;;13.50;99.90;;;;;;5033392;28;20048;-74
2021/10/02 01:52:38;;;;;;;13.00;8.85;;;13.40;99.90;;;;;;5033013;28;20021;-74
2021/10/02 01:55:09;;;;;;;12.47;9.80;;;13.30;99.90;;;;;;5033279;28;20381;-73
2021/10/02 01:57:42;;;;;;;11.55;8.85;;;13.30;99.90;;;;;;5033032;28;20028;-74
2021/10/02 02:00:10;;;;;;;12.95;9.18;;;13.30;99.90;;;;;;5052595;28;20038;-74
2021/10/02 02:02:38;;;;;;;10.95;9.30;;;13.30;99.90;;;;;;5035341;28;20017;-74
2021/10/02 02:05:07;;;;;;;9.70;8.57;;;13.30;99.90;;;;;;5035960;28;20033;-73
2021/10/02 02:07:34;;;;;;;10.45;8.23;;;13.30;99.90;;;;;;5035553;28;20025;-73
2021/10/02 02:10:00;;;;;;;12.55;9.90;;;13.30;99.90;;;;;;5033112;28;20449;-73
2021/10/02 02:12:32;;;;;;;11.02;8.52;;;13.30;99.90;;;;;;5032856;28;20547;-73
2021/10/02 02:15:06;;;;;;;13.77;8.32;;;13.30;99.90;;;;;;5031183;28;20033;-73
2021/10/02 02:17:34;;;;;;;9.07;8.18;;;13.50;99.90;;;;;;5032565;28;20021;-73
2021/10/02 02:20:04;;;;;;;11.30;8.18;;;13.60;99.90;;;;;;5032562;28;20087;-73
2021/10/02 02:22:30;;;;;;;8.95;8.05;;;13.70;99.90;;;;;;5032690;28;20025;-73
2021/10/02 02:24:56;;;;;;;9.85;7.47;;;13.80;99.90;;;;;;5036085;28;20052;-72
2021/10/02 02:27:22;;;;;;;10.70;7.60;;;13.80;99.90;;;;;;5034053;28;20042;-72
2021/10/02 02:29:48;;;;;;;12.10;7.43;;;13.60;99.90;;;;;;5032584;28;20021;-73
2021/10/02 02:32:16;;;;;;;10.73;7.70;;;13.50;99.90;;;;;;5032716;28;20022;-73
2021/10/02 02:34:42;;;;;;;11.30;7.78;;;13.40;99.90;;;;;;5032484;28;20040;-73
2021/10/02 02:37:08;;;;;;;10.93;8.20;;;13.30;99.90;;;;;;5031222;28;20516;-73
2021/10/02 02:39:33;;;;;;;9.50;7.35;;;13.30;99.90;;;;;;5031036;28;20051;-74
2021/10/02 02:41:59;;;;;;;10.38;7.35;;;13.20;99.90;;;;;;5032360;28;20041;-73
2021/10/02 02:44:25;;;;;;;8.57;7.68;;;13.20;99.90;;;;;;5032128;28;20104;-74
2021/10/02 02:46:56;;;;;;;12.35;7.40;;;13.10;99.90;;;;;;5032223;28;20026;-74
2021/10/02 02:49:34;;;;;;;12.80;7.55;;;13.20;99.90;;;;;;5032045;28;20032;-74
2021/10/02 02:52:02;;;;;;;10.52;7.45;;;13.20;99.90;;;;;;5032766;28;20540;-76
2021/10/02 02:54:39;;;;;;;9.93;8.93;;;13.20;99.90;;;;;;5032342;28;20017;-73
2021/10/02 02:57:21;;;;;;;8.93;7.80;;;13.10;99.90;;;;;;5041344;28;20030;-72
2021/10/02 03:00:04;;;;;;;9.07;7.60;;;13.30;99.90;;;;;;5035125;28;20284;-72
2021/10/02 03:02:34;;;;;;;9.85;7.75;;;13.30;99.90;;;;;;5038456;28;20374;-72
2021/10/02 03:05:02;;;;;;;11.27;8.95;;;13.30;99.90;;;;;;5044962;28;20049;-73
2021/10/02 03:07:30;;;;;;;9.10;8.18;;;13.20;99.90;;;;;;5033465;28;20029;-73
2021/10/02 03:09:57;;;;;;;11.02;8.32;;;13.20;99.90;;;;;;5033482;28;20117;-73
2021/10/02 03:12:30;;;;;;;9.75;8.63;;;13.20;99.90;;;;;;5032609;28;20026;-73
2021/10/02 03:14:58;;;;;;;9.63;7.72;;;13.40;99.90;;;;;;5083563;22;20101;-72
2021/10/02 03:17:25;;;;;;;10.00;7.50;;;13.50;99.90;;;;;;5052461;28;20068;-73
2021/10/02 03:19:52;;;;;;;12.85;8.27;;;13.50;99.90;;;;;;5055816;28;20017;-73
2021/10/02 03:22:18;;;;;;;9.52;7.85;;;13.40;99.90;;;;;;5070449;28;20035;-73
2021/10/02 03:24:46;;;;;;;9.95;8.48;;;13.20;99.90;;;;;;5074144;28;20009;-72
2021/10/02 03:27:12;;;;;;;13.70;7.70;;;13.30;99.90;;;;;;5070791;28;20100;-73
2021/10/02 03:29:38;;;;;;;9.05;7.70;;;13.20;99.90;;;;;;5056077;28;20068;-74
2021/10/02 03:32:08;;;;;;;8.70;7.55;;;13.20;99.90;;;;;;5070433;28;20029;-74
2021/10/02 03:34:35;;;;;;;8.65;7.65;;;13.20;99.90;;;;;;5072509;28;20041;-73
2021/10/02 03:37:00;;;;;;;9.93;7.25;;;13.30;99.90;;;;;;5073182;28;20051;-73
2021/10/02 03:39:26;;;;;;;10.32;7.38;;;13.40;99.90;;;;;;5073899;28;20029;-72
2021/10/02 03:42:13;;;;;;;10.75;8.15;;;13.40;99.90;;;;;;5070547;28;20051;-73
2021/10/02 03:44:44;;;;;;;10.77;7.07;;;13.40;99.90;;;;;;5073906;28;20025;-73
2021/10/02 03:47:11;;;;;;;8.93;8.02;;;13.30;99.90;;;;;;5064841;28;20024;-73
2021/10/02 03:49:38;;;;;;;9.00;8.10;;;13.30;99.90;;;;;;5054708;28;20032;-74
2021/10/02 03:52:04;;;;;;;10.75;8.60;;;13.30;99.90;;;;;;5052728;28;20429;-74
2021/10/02 03:54:30;;;;;;;10.65;7.60;;;13.30;99.90;;;;;;5054915;28;20117;-73
2021/10/02 03:56:56;;;;;;;9.88;7.47;;;13.30;99.90;;;;;;5055985;28;20048;-73
2021/10/02 03:59:22;;;;;;;9.95;7.60;;;13.20;99.90;;;;;;5056637;28;20028;-73
2021/10/02 04:01:48;;;;;;;8.73;7.82;;;13.10;99.90;;;;;;5058790;28;20021;-73
2021/10/02 04:04:14;;;;;;;12.95;8.50;;;13.00;99.90;;;;;;5069043;28;20025;-74
2021/10/02 04:06:39;;;;;;;12.23;8.90;;;13.00;99.90;;;;;;5060505;28;20064;-73
2021/10/02 04:09:05;;;;;;;9.98;8.20;;;13.00;99.90;;;;;;5056183;28;20033;-75
2021/10/02 04:11:32;;;;;;;9.82;8.07;;;12.90;99.90;;;;;;5056074;28;20044;-74
2021/10/02 04:13:58;;;;;;;11.38;8.30;;;12.90;99.90;;;;;;5054400;28;20503;-73
2021/10/02 04:16:24;;;;;;;9.77;8.38;;;12.90;99.90;;;;;;5055228;28;20067;-73
2021/10/02 04:18:49;;;;;;;11.23;7.90;;;12.90;99.90;;;;;;5054096;28;20064;-73
2021/10/02 04:21:15;;;;;;;8.52;7.55;;;12.90;99.90;;;;;;5055187;28;20021;-73
2021/10/02 04:23:40;;;;;;;9.50;7.63;;;13.00;99.90;;;;;;5054558;28;20079;-73
2021/10/02 04:26:06;;;;;;;10.82;7.72;;;13.10;99.90;;;;;;5055419;28;20031;-75
2021/10/02 04:28:32;;;;;;;11.25;7.72;;;13.10;99.90;;;;;;5053896;28;20074;-74
2021/10/02 04:30:59;;;;;;;11.02;9.07;;;13.10;99.90;;;;;;5055235;28;20435;-73
2021/10/02 04:33:24;;;;;;;9.98;8.30;;;13.00;99.90;;;;;;5054929;28;20618;-75
2021/10/02 04:35:50;;;;;;;11.88;8.13;;;13.00;99.90;;;;;;5054957;28;20047;-73
2021/10/02 04:38:15;;;;;;;9.30;8.13;;;12.90;99.90;;;;;;5054734;28;20472;-73
2021/10/02 04:40:41;;;;;;;12.63;8.27;;;12.90;99.90;;;;;;5053692;28;20037;-74
2021/10/02 04:43:06;;;;;;;9.82;8.02;;;12.80;99.90;;;;;;5054937;28;20025;-73
2021/10/02 04:45:32;;;;;;;10.13;8.00;;;12.80;99.90;;;;;;5054682;28;20029;-73
2021/10/02 04:47:57;;;;;;;13.02;8.57;;;12.80;99.90;;;;;;5055039;28;20061;-74
2021/10/02 04:50:23;;;;;;;13.20;8.30;;;12.70;99.90;;;;;;5073421;28;20044;-72
2021/10/02 04:52:52;;;;;;;10.57;7.80;;;12.70;99.90;;;;;;5079665;28;20017;-73
2021/10/02 04:55:17;;;;;;;13.35;8.38;;;12.70;99.90;;;;;;5077893;28;20015;-73
2021/10/02 04:57:43;;;;;;;14.95;9.70;;;12.60;99.90;;;;;;5060903;28;20112;-72
2021/10/02 05:00:09;;;;;;;13.90;8.27;;;12.60;99.90;;;;;;5058584;28;20075;-72
2021/10/02 05:02:34;;;;;;;17.98;9.55;;;12.60;99.90;;;;;;5055262;28;20021;-74
2021/10/02 05:05:00;;;;;;;13.77;9.25;;;12.60;99.90;;;;;;5052150;28;20025;-73
2021/10/02 05:07:25;;;;;;;11.32;8.65;;;12.60;99.90;;;;;;5054852;28;20094;-74
2021/10/02 05:09:51;;;;;;;9.55;8.32;;;12.70;99.90;;;;;;5054686;28;20024;-73
2021/10/02 05:12:17;;;;;;;9.02;8.07;;;12.70;99.90;;;;;;5054844;28;20056;-73
2021/10/02 05:14:42;;;;;;;14.15;8.80;;;12.80;99.90;;;;;;5054265;28;20033;-74
2021/10/02 05:17:11;;;;;;;13.07;8.70;;;12.80;99.90;;;;;;5054535;28;20021;-74
2021/10/02 05:19:38;;;;;;;10.50;8.25;;;12.80;99.90;;;;;;5054641;28;20025;-73
2021/10/02 05:22:04;;;;;;;11.55;8.93;;;12.70;99.90;;;;;;5054668;28;20397;-73
2021/10/02 05:24:30;;;;;;;11.95;9.00;;;12.70;99.90;;;;;;5055167;28;20028;-72
2021/10/02 05:26:56;;;;;;;11.68;8.93;;;12.70;99.90;;;;;;5055043;28;20021;-74
2021/10/02 05:29:21;;;;;;;11.70;8.13;;;12.60;99.90;;;;;;5054740;28;20039;-75
2021/10/02 05:31:48;;;;;;;12.52;8.50;;;12.70;99.90;;;;;;5055169;28;20033;-73
2021/10/02 05:34:14;;;;;;;10.38;8.52;;;12.70;99.90;;;;;;5062759;28;20230;-73
2021/10/02 05:36:40;;;;;;;10.23;7.32;;;12.70;99.90;;;;;;5061593;28;20017;-74
2021/10/02 05:39:06;;;;;;;13.27;8.77;;;12.60;99.90;;;;;;5054127;28;20025;-74
2021/10/02 05:41:33;;;;;;;11.82;8.35;;;12.80;99.90;;;;;;5054108;28;20071;-74
2021/10/02 05:43:58;;;;;;;10.70;8.38;;;13.00;99.90;;;;;;5053966;28;20040;-74
2021/10/02 05:46:24;;;;;;;10.77;7.57;;;13.20;99.90;;;;;;5053570;28;20036;-76
2021/10/02 05:48:50;;;;;;;11.32;8.13;;;13.20;99.90;;;;;;5053890;28;20088;-74
2021/10/02 05:51:15;;;;;;;10.70;7.18;;;13.40;99.90;;;;;;5053841;28;20083;-74
2021/10/02 05:53:41;;;;;;;8.50;7.03;;;13.40;99.90;;;;;;5066909;28;20044;-73
2021/10/02 05:56:06;;;;;;;9.07;6.75;;;13.40;99.90;;;;;;5070212;28;20028;-72
2021/10/02 05:58:32;;;;;;;9.48;7.47;;;13.30;99.90;;;;;;5065228;28;20377;-72
2021/10/02 06:00:58;;;;;;;13.30;7.75;;;13.30;99.90;;;;;;5061780;28;20557;-74
2021/10/02 06:03:23;;;;;;;11.30;7.57;;;13.40;99.90;;;;;;5056675;28;20443;-74
2021/10/02 06:05:49;;;;;;;10.27;7.32;;;13.50;99.90;;;;;;5054322;28;20496;-76
2021/10/02 06:08:14;;;;;;;9.05;7.80;;;13.50;99.90;;;;;;5053957;28;20036;-73
2021/10/02 06:10:40;;;;;;;9.55;7.00;;;13.60;99.90;;;;;;5054717;28;20028;-74
2021/10/02 06:13:06;;;;;;;9.40;7.43;;;13.60;99.90;;;;;;5053668;28;20413;-74
2021/10/02 06:15:31;;;;;;;11.98;7.75;;;13.60;99.90;;;;;;5052824;28;20373;-74
2021/10/02 06:17:57;;;;;;;9.85;7.40;;;13.70;99.90;;;;;;5052812;28;20108;-74
2021/10/02 06:20:24;;;;;;;13.60;9.90;;;13.80;99.90;;;;;;5053484;28;20052;-74
2021/10/02 06:22:50;;;;;;;7.95;7.05;;;13.80;99.90;;;;;;5056046;28;20009;-75
2021/10/02 06:25:16;;;;;;;8.13;7.32;;;13.80;99.90;;;;;;5054553;28;20389;-73
2021/10/02 06:27:41;;;;;;;12.25;8.57;;;13.70;99.90;;;;;;5054236;28;20104;-73
2021/10/02 06:30:08;;;;;;;9.23;6.65;;;13.70;99.90;;;;;;5053039;28;20021;-74
2021/10/02 06:32:34;;;;;;;10.65;7.50;;;13.70;99.90;;;;;;5053191;28;20111;-74
2021/10/02 06:34:59;;;;;;;7.68;6.65;;;13.60;99.90;;;;;;5052869;28;20067;-74
2021/10/02 06:37:25;;;;;;;10.27;8.05;;;13.60;99.90;;;;;;5052850;28;20052;-74
2021/10/02 06:39:51;;;;;;;12.48;7.10;;;13.70;99.90;;;;;;5052625;28;20542;-74
2021/10/02 06:42:16;;;;;;;11.80;7.25;;;13.70;99.90;;;;;;5052753;28;20135;-74
2021/10/02 06:44:42;;;;;;;8.38;7.35;;;13.80;99.90;;;;;;5052869;28;20033;-74
2021/10/02 06:47:08;;;;;;;11.48;7.40;;;13.90;99.90;;;;;;5052898;28;20485;-73
2021/10/02 06:49:33;;;;;;;9.38;6.90;;;14.00;99.90;;;;;;5054764;28;20032;-73
2021/10/02 06:51:59;;;;;;;10.82;7.60;;;13.90;99.90;;;;;;5055822;28;20025;-74
2021/10/02 06:54:24;;;;;;;11.02;8.15;;;13.80;99.90;;;;;;5052915;28;20025;-73
2021/10/02 06:56:50;;;;;;;8.32;7.53;;;13.90;99.90;;;;;;5053040;28;20028;-73
2021/10/02 06:59:16;;;;;;;9.13;6.82;;;14.00;99.90;;;;;;5052719;28;20036;-74
2021/10/02 07:01:42;;;;;;;14.30;7.10;;;14.10;99.90;;;;;;5056104;28;20029;-72
2021/10/02 07:04:08;;;;;;;10.43;6.68;;;14.20;99.90;;;;;;5053410;28;20401;-74
2021/10/02 07:06:34;;;;;;;8.02;7.22;;;14.20;99.90;;;;;;5054843;28;20370;-73
2021/10/02 07:08:59;;;;;;;9.90;7.30;;;14.20;99.90;;;;;;5054375;28;20055;-74
2021/10/02 07:11:25;;;;;;;10.65;7.47;;;14.30;99.90;;;;;;5054166;28;20097;-74
2021/10/02 07:13:51;;;;;;;10.38;7.85;;;14.20;99.90;;;;;;5052523;28;20508;-75
2021/10/02 07:16:16;;;;;;;9.05;8.25;;;14.30;99.90;;;;;;5052240;28;20508;-75
2021/10/02 07:18:42;;;;;;;9.68;7.00;;;14.40;99.90;;;;;;5052631;28;20075;-74
2021/10/02 07:21:08;;;;;;;10.98;7.13;;;14.60;99.90;;;;;;5053692;28;20044;-75
2021/10/02 07:23:34;;;;;;;8.18;7.38;;;14.80;99.90;;;;;;5053791;28;20025;-75
2021/10/02 07:26:00;;;;;;;7.82;6.95;;;15.00;99.90;;;;;;5055978;28;20108;-76
2021/10/02 07:28:25;;;;;;;8.23;6.78;;;15.20;99.90;;;;;;5055462;28;20040;-74
2021/10/02 07:30:51;;;;;;;9.82;6.80;;;15.30;99.90;;;;;;5058871;28;20029;-74
2021/10/02 07:33:17;;;;;;;12.07;7.15;;;15.30;99.90;;;;;;5058458;28;20025;-73
2021/10/02 07:35:43;;;;;;;10.20;7.22;;;15.30;99.90;;;;;;5059152;28;20025;-73
2021/10/02 07:38:09;;;;;;;9.27;6.45;;;15.30;99.90;;;;;;5058466;28;20028;-74
2021/10/02 07:40:37;;;;;;;8.88;6.28;;;15.20;99.90;;;;;;5060790;28;20021;-75
2021/10/02 07:43:03;;;;;;;7.78;6.93;;;15.30;99.90;;;;;;5058361;28;20024;-73
2021/10/02 07:45:29;;;;;;;9.95;7.07;;;15.20;99.90;;;;;;5057648;28;20111;-73
2021/10/02 07:47:55;;;;;;;8.05;7.00;;;15.30;99.90;;;;;;5060350;28;20056;-74
2021/10/02 07:50:22;;;;;;;7.85;6.90;;;15.30;99.90;;;;;;5055830;28;20025;-73
2021/10/02 07:52:50;;;;;;;12.68;8.50;;;15.50;99.90;;;;;;5057218;28;20392;-74
2021/10/02 07:55:16;;;;;;;9.20;6.72;;;15.50;99.90;;;;;;5057521;28;20013;-76
2021/10/02 07:57:44;;;;;;;9.52;7.32;;;15.60;99.90;;;;;;5058082;28;20036;-73
2021/10/02 08:00:13;;;;;;;8.82;7.35;;;15.60;99.90;;;;;;5058124;28;20037;-76
2021/10/02 08:02:43;;;;;;;7.70;6.68;;;15.70;99.90;;;;;;5057670;28;20032;-75
2021/10/02 08:05:09;;;;;;;7.38;6.38;;;15.70;99.90;;;;;;5057101;28;20179;-74
2021/10/02 08:07:38;;;;;;;7.53;6.75;;;15.90;99.90;;;;;;5056177;28;20758;-75
2021/10/02 08:10:04;;;;;;;8.27;6.53;;;15.90;99.90;;;;;;5059349;28;20112;-73
2021/10/02 08:12:30;;;;;;;7.22;6.40;;;15.90;99.90;;;;;;5057558;28;20079;-75
2021/10/02 08:14:55;;;;;;;7.25;5.32;;;16.00;99.90;;;;;;5059097;28;20040;-74
2021/10/02 08:17:25;;;;;;;9.45;6.15;;;16.00;99.90;;;;;;5060298;28;20025;-74
2021/10/02 08:19:55;;;;;;;7.72;5.70;;;16.10;99.90;;;;;;5056352;28;20084;-75
2021/10/02 08:22:23;;;;;;;7.28;6.53;;;16.10;99.90;;;;;;5055161;28;20029;-74
2021/10/02 08:24:51;;;;;;;7.25;6.25;;;16.30;99.90;;;;;;5054920;28;20086;-75
2021/10/02 08:27:18;;;;;;;8.13;6.43;;;16.40;99.90;;;;;;5056301;28;20078;-74
2021/10/02 08:29:44;;;;;;;8.13;5.72;;;16.40;99.90;;;;;;5055430;28;20098;-74
2021/10/02 08:32:10;;;;;;;6.80;5.18;;;16.60;99.90;;;;;;5055493;28;20024;-74
2021/10/02 08:34:35;;;;;;;10.70;5.65;;;16.70;99.90;;;;;;5055944;28;20013;-74
2021/10/02 08:37:01;;;;;;;6.80;6.03;;;16.80;99.90;;;;;;5054956;28;20499;-73
2021/10/02 08:39:27;;;;;;;5.00;4.45;;;16.90;99.90;;;;;;5054564;28;20108;-75
2021/10/02 08:41:52;;;;;;;8.73;5.38;;;17.00;99.90;;;;;;5054972;28;20025;-73
2021/10/02 08:44:22;;;;;;;9.70;5.82;;;17.10;99.90;;;;;;5056848;28;20048;-74
2021/10/02 08:46:51;;;;;;;6.33;5.73;;;17.30;99.90;;;;;;5055569;28;20076;-74
2021/10/02 08:49:32;;;;;;;6.18;5.57;;;17.30;99.90;;;;;;5055790;28;20036;-73
2021/10/02 08:52:03;;;;;;;6.15;4.57;;;17.50;99.90;;;;;;5061140;28;20087;-76
2021/10/02 08:54:36;;;;;;;6.00;5.40;;;17.60;99.90;;;;;;5060964;28;20037;-75
2021/10/02 08:57:05;;;;;;;4.97;4.57;;;17.70;99.90;;;;;;5057283;28;20104;-74
2021/10/02 08:59:31;;;;;;;6.72;4.97;;;17.90;99.90;;;;;;5078248;28;20021;-73
2021/10/02 09:01:57;;;;;;;4.40;3.97;;;17.90;99.90;;;;;;5079417;28;20021;-74
2021/10/02 09:04:22;;;;;;;5.18;4.30;;;18.00;99.90;;;;;;5078503;28;20222;-74
2021/10/02 09:06:48;;;;;;;4.75;4.18;;;18.00;99.90;;;;;;5059091;28;20108;-74
2021/10/02 09:09:16;;;;;;;4.70;3.90;;;18.20;99.90;;;;;;5056655;28;20029;-75
2021/10/02 09:11:41;;;;;;;6.18;3.92;;;18.30;99.90;;;;;;5054543;28;20020;-75
2021/10/02 09:14:08;;;;;;;6.45;4.57;;;18.20;99.90;;;;;;5054324;28;20028;-74
2021/10/02 09:16:33;;;;;;;7.05;3.70;;;18.40;99.90;;;;;;5079276;22;20405;-74
2021/10/02 09:18:59;;;;;;;4.47;4.07;;;18.40;99.90;;;;;;5058814;28;20025;-74
2021/10/02 09:21:25;;;;;;;4.60;3.67;;;18.60;99.90;;;;;;5056810;28;20025;-74
2021/10/02 09:23:51;;;;;;;5.43;3.05;;;18.60;99.90;;;;;;5058190;28;20036;-74
2021/10/02 09:26:37;;;;;;;3.20;2.90;;;18.60;99.90;;;;;;5056239;28;20060;-74
2021/10/02 09:29:03;;;;;;;2.58;2.33;;;18.50;99.90;;;;;;5057354;28;20409;-74
2021/10/02 09:31:31;;;;;;;3.80;2.80;;;18.60;99.90;;;;;;5058222;28;20021;-74
2021/10/02 09:33:56;;;;;;;4.45;2.92;;;18.70;99.90;;;;;;5058662;28;20032;-74
2021/10/02 09:36:23;;;;;;;3.13;2.83;;;18.80;99.90;;;;;;5062091;28;20033;-74
2021/10/02 09:38:53;;;;;;;8.32;3.30;;;18.90;99.90;;;;;;5061578;28;20021;-74
2021/10/02 09:41:20;;;;;;;4.72;3.30;;;19.10;99.90;;;;;;5058618;28;20017;-75
2021/10/02 09:43:48;;;;;;;5.28;2.40;;;19.20;99.90;;;;;;5058113;28;20053;-74
2021/10/02 09:46:14;;;;;;;3.65;2.47;;;19.20;99.90;;;;;;5071539;28;20059;-74
2021/10/02 09:48:39;;;;;;;3.13;2.15;;;19.30;99.90;;;;;;5065035;28;20029;-75
2021/10/02 09:51:09;;;;;;;3.80;1.67;;;19.30;99.90;;;;;;5063398;28;20060;-74
2021/10/02 09:53:43;;;;;;;2.72;2.28;;;19.40;99.90;;;;;;5062724;28;20021;-74
2021/10/02 09:56:11;;;;;;;3.38;2.08;;;19.60;99.90;;;;;;5058389;28;20511;-74
2021/10/02 09:58:38;;;;;;;1.98;1.70;;;19.60;99.90;;;;;;5056348;28;20032;-74
2021/10/02 10:01:05;;;;;;;2.53;1.83;;;19.70;99.90;;;;;;5056902;28;20040;-75
2021/10/02 10:03:43;;;;;;;5.03;1.80;;;19.80;99.90;;;;;;5057192;28;20033;-75
2021/10/02 10:06:23;;;;;;;2.97;1.90;;;19.90;99.90;;;;;;5057592;28;20025;-73
2021/10/02 10:09:21;;;;;;;2.45;2.13;;;20.00;99.80;;;;;;5057287;28;20491;-73
2021/10/02 10:11:54;;;;;;;2.05;1.70;;;20.10;99.90;;;;;;5033345;28;20068;-73
2021/10/02 10:14:22;;;;;;;2.13;1.90;;;20.10;99.70;;;;;;5055196;28;20029;-75
2021/10/02 10:16:48;;;;;;;2.25;2.05;;;20.20;99.90;;;;;;5056544;28;20028;-74
2021/10/02 10:19:23;;;;;;;4.57;2.25;;;20.30;99.80;;;;;;5055720;28;20053;-75
2021/10/02 10:22:08;;;;;;;2.50;2.15;;;20.40;99.70;;;;;;5055181;28;20044;-74
2021/10/02 10:24:35;;;;;;;2.70;2.35;;;20.40;99.80;;;;;;5056043;28;20508;-74
2021/10/02 10:27:01;;;;;;;6.82;2.30;;;20.40;99.80;;;;;;5056276;28;20079;-75
2021/10/02 10:29:44;;;;;;;2.90;2.38;;;20.50;99.90;;;;;;5055917;28;20037;-75
2021/10/02 10:32:11;;;;;;;4.15;2.22;;;20.60;99.70;;;;;;5056661;28;20384;-73
2021/10/02 10:34:39;;;;;;;2.90;2.08;;;20.60;99.80;;;;;;5056898;28;20469;-75
2021/10/02 10:37:10;;;;;;;2.97;2.17;;;20.70;99.60;;;;;;5056202;28;20025;-74
2021/10/02 10:39:36;;;;;;;4.00;2.38;;;20.80;99.40;;;;;;5055818;28;20029;-74
2021/10/02 10:42:03;;;;;;;2.78;2.03;;;20.90;99.10;;;;;;5055312;28;20040;-75
2021/10/02 10:44:29;;;;;;;2.80;2.40;;;21.00;99.10;;;;;;5055807;28;20025;-74
2021/10/02 10:46:56;;;;;;;2.65;2.45;;;21.00;99.30;;;;;;5057263;28;20364;-75
2021/10/02 10:49:24;;;;;;;3.30;2.53;;;21.00;99.50;;;;;;5056120;28;20021;-74
2021/10/02 10:51:50;;;;;;;2.45;2.25;;;21.10;98.90;;;;;;5056780;28;20025;-74
2021/10/02 10:54:17;;;;;;;4.28;2.78;;;21.10;99.00;;;;;;5056865;28;20108;-74
2021/10/02 10:56:46;;;;;;;3.15;2.60;;;21.20;98.90;;;;;;5055074;28;20029;-74
2021/10/02 10:59:18;;;;;;;2.45;2.08;;;21.30;98.70;;;;;;5054524;28;20445;-75
2021/10/02 11:01:43;;;;;;;6.97;2.22;;;21.30;98.50;;;;;;5054808;28;20021;-74
2021/10/02 11:04:31;;;;;;;4.35;2.40;;;21.20;98.10;;;;;;5058735;28;20196;-75
2021/10/02 11:06:57;;;;;;;3.40;2.80;;;21.20;98.10;;;;;;5058147;28;20445;-75
2021/10/02 11:09:43;;;;;;;3.92;2.78;;;21.20;98.20;;;;;;5057864;28;20045;-73
2021/10/02 11:12:10;;;;;;;3.92;1.95;;;21.20;98.10;;;;;;5058295;28;20066;-74
2021/10/02 11:14:49;;;;;;;3.03;2.70;;;21.20;98.30;;;;;;5074785;28;20029;-74
2021/10/02 11:17:36;;;;;;;2.65;2.20;;;21.30;98.10;;;;;;5075078;28;20057;-74
2021/10/02 11:20:17;;;;;;;3.28;2.40;;;21.40;98.20;;;;;;5075615;28;20025;-73
2021/10/02 11:23:08;;;;;;;2.88;2.35;;;21.50;97.60;;;;;;5076306;28;20017;-74
2021/10/02 11:25:35;;;;;;;4.30;2.92;;;21.50;97.70;;;;;;5076242;28;20024;-74
2021/10/02 11:28:22;;;;;;;3.20;2.10;;;21.50;97.20;;;;;;5076935;28;20025;-74
2021/10/02 11:30:50;;;;;;;3.95;2.40;;;21.60;97.10;;;;;;5076214;28;20131;-74
2021/10/02 11:33:34;;;;;;;3.60;2.20;;;21.70;97.10;;;;;;5077757;28;20029;-74
2021/10/02 11:36:20;;;;;;;2.92;2.33;;;21.70;97.00;;;;;;5065534;28;20087;-74
2021/10/02 11:38:46;;;;;;;3.50;2.13;;;21.80;96.70;;;;;;5074976;28;20057;-73
2021/10/02 11:41:22;;;;;;;2.50;2.30;;;21.80;96.90;;;;;;5076984;28;20036;-74
2021/10/02 11:43:55;;;;;;;4.10;3.80;;;22.00;96.80;;;;;;5076894;28;20021;-73
2021/10/02 11:46:25;;;;;;;2.00;1.80;;;22.30;96.10;;;;;;5072039;28;20056;-73
2021/10/02 11:48:52;;;;;;;3.33;3.03;;;22.20;95.90;;;;;;5076221;28;20063;-74
2021/10/02 11:51:29;;;;;;;6.30;2.50;;;22.40;95.90;;;;;;5075924;28;20056;-72
2021/10/02 11:54:09;;;;;;;2.92;1.95;;;22.40;95.80;;;;;;5078754;28;20084;-74
2021/10/02 11:56:36;;;;;;;2.40;2.20;;;22.50;95.50;;;;;;5078380;28;20020;-73
2021/10/02 11:59:04;;;;;;;3.88;3.15;;;22.50;95.20;;;;;;5077950;28;20148;-74
2021/10/02 12:01:32;;;;;;;5.50;2.08;;;22.70;94.80;;;;;;5077834;28;20013;-74
2021/10/02 12:04:03;;;;;;;2.55;2.00;;;22.60;94.60;;;;;;5077990;28;20096;-74
2021/10/02 12:06:29;;;;;;;;;;;22.70;95.30;;;;;;5080642;28;20028;-73
2021/10/02 12:08:57;;;;;;;2.67;2.10;;;22.70;95.70;;;;;;5078898;28;19985;-73
2021/10/02 12:11:23;;;;;;;5.88;2.28;;;22.70;95.90;;;;;;5074312;28;20024;-74
2021/10/02 12:13:51;;;;;;;2.45;2.00;;;22.80;95.00;;;;;;5073911;28;20106;-74
2021/10/02 12:16:19;;;;;;;2.55;2.28;;;22.80;94.50;;;;;;5075222;28;20051;-73
2021/10/02 12:19:06;;;;;;;2.28;2.10;;;22.80;94.40;;;;;;5076691;28;20020;-73
2021/10/02 12:21:37;;;;;;;2.33;2.10;;;22.70;94.30;;;;;;5075795;28;20028;-75
2021/10/02 12:24:29;;;;;;;2.35;2.15;;;22.60;94.30;;;;;;5075295;28;20045;-73
2021/10/02 12:27:00;;;;;;;4.85;1.85;;;22.60;94.60;;;;;;5074470;28;20055;-73
2021/10/02 12:29:28;;;;;;;2.03;1.83;;;22.80;94.60;;;;;;5074941;28;20029;-73
2021/10/02 12:32:02;;;;;;;2.45;2.25;;;22.80;94.60;;;;;;5075852;28;20006;-74
2021/10/02 12:34:34;;;;;;;2.00;1.90;;;22.80;94.50;;;;;;5076591;28;20018;-75
2021/10/02 12:37:20;;;;;;;3.15;2.03;;;22.80;94.60;;;;;;5075100;28;20060;-75
2021/10/02 12:39:53;;;;;;;2.80;2.50;;;22.70;94.60;;;;;;5074441;28;20029;-75
2021/10/02 12:42:33;;;;;;;4.60;2.30;;;22.60;94.50;;;;;;5075792;28;20036;-73
2021/10/02 12:44:59;;;;;;;3.30;1.90;;;22.60;94.60;;;;;;5077390;28;20036;-74
2021/10/02 12:47:27;;;;;;;5.40;2.42;;;22.50;94.80;;;;;;5077534;28;20092;-74
2021/10/02 12:49:57;;;;;;;2.75;2.15;;;22.60;94.40;;;;;;5078286;28;20080;-74
2021/10/02 12:52:22;;;;;;;2.47;2.13;;;22.50;94.10;;;;;;5078776;28;20017;-73
2021/10/02 12:54:54;;;;;;;3.50;2.33;;;22.50;94.20;;;;;;5077514;28;20074;-74
2021/10/02 12:57:29;;;;;;;2.28;2.08;;;22.60;94.10;;;;;;5078157;28;20030;-72
2021/10/02 13:00:28;;;;;;;5.95;2.53;;;22.60;94.20;;;;;;5077288;28;20012;-75
2021/10/02 13:02:56;;;;;;;2.10;1.88;;;22.80;94.40;;;;;;5067608;28;20071;-75
2021/10/02 13:05:28;;;;;;;2.38;1.85;;;23.00;94.10;;;;;;5071766;28;20100;-73
2021/10/02 13:07:59;;;;;;;3.45;1.90;;;23.10;93.80;;;;;;5078272;28;20098;-72
2021/10/02 13:10:28;;;;;;;2.20;1.90;;;23.20;93.40;;;;;;5076104;28;20044;-73
2021/10/02 13:12:59;;;;;;;3.35;2.50;;;23.30;93.80;;;;;;5076183;28;20043;-74
2021/10/02 13:15:36;;;;;;;3.58;1.77;;;23.20;93.60;;;;;;5075688;28;20544;-74
2021/10/02 13:18:02;;;;;;;2.30;2.10;;;23.20;93.40;;;;;;5075615;28;20048;-77
2021/10/02 13:20:29;;;;;;;2.20;2.00;;;23.50;92.90;;;;;;5075536;28;20013;-73
2021/10/02 13:22:54;;;;;;;2.10;1.90;;;23.60;92.50;;;;;;5072762;28;20005;-73
2021/10/02 13:25:24;;;;;;;3.72;2.25;;;23.60;92.40;;;;;;5073181;28;20032;-72
2021/10/02 13:27:53;;;;;;;1.55;1.45;;;23.60;92.50;;;;;;5076846;28;20025;-74
2021/10/02 13:30:27;;;;;;;1.85;1.70;;;23.60;92.60;;;;;;5074760;28;20068;-74
2021/10/02 13:32:59;;;;;;;2.78;1.95;;;23.70;92.00;;;;;;5074753;28;20055;-75
2021/10/02 13:35:27;;;;;;;4.72;1.88;;;23.60;92.00;;;;;;5074778;28;20025;-73
2021/10/02 13:37:53;;;;;;;2.15;1.63;;;23.60;92.00;;;;;;5074932;28;20040;-74
2021/10/02 13:40:34;;;;;;;3.72;2.15;;;23.50;91.90;;;;;;5076319;28;20013;-73
2021/10/02 13:43:02;;;;;;;3.90;2.00;;;23.40;91.50;;;;;;5074759;28;20060;-73
2021/10/02 13:45:39;;;;;;;3.38;1.63;;;23.40;91.80;;;;;;5074873;28;20036;-73
2021/10/02 13:48:25;;;;;;;3.00;1.52;;;23.40;92.00;;;;;;5073302;28;20037;-74